Time;durP1;ratioP1;P1;durP2;ratioP2;P2;SDS_P1;SDS_P2;PMS_P1;PMS_P2;Temp;Humidity;BMP_temperature;BMP_pressure;BME280_temperature;BME280_humidity;BME280_pressure;Samples;Min_cycle;Max_cycle;Signal;HPM_P1;HPM_P2
2024/01/28 00:01:41;;;;;;;14.37;4.13;;;;;;;;;;10143838;29;20225;-68
2024/01/28 00:06:41;;;;;;;14.83;4.93;;;;;;;;;;10141502;29;20245;-68
2024/01/28 00:11:43;;;;;;;16.93;3.90;;;;;;;;;;10142705;28;20197;-68
2024/01/28 00:16:43;;;;;;;14.70;4.53;;;;;;;;;;10142372;28;20283;-68
2024/01/28 00:21:43;;;;;;;14.10;4.10;;;;;;;;;;10141904;28;20202;-68
2024/01/28 00:26:43;;;;;;;18.30;4.47;;;;;;;;;;10141611;29;20613;-68
2024/01/28 00:31:43;;;;;;;11.30;4.53;;;;;;;;;;10141904;28;20866;-68
2024/01/28 00:36:43;;;;;;;12.40;4.07;;;;;;;;;;10141936;29;20217;-68
2024/01/28 00:41:44;;;;;;;10.80;3.90;;;;;;;;;;10141865;28;20189;-68
2024/01/28 00:46:44;;;;;;;13.23;3.97;;;;;;;;;;10141114;28;20312;-68
2024/01/28 00:51:44;;;;;;;15.50;3.43;;;;;;;;;;10139709;28;20550;-68
2024/01/28 00:56:44;;;;;;;10.80;3.70;;;;;;;;;;10140621;28;20205;-67
2024/01/28 01:01:44;;;;;;;11.87;3.57;;;;;;;;;;10141690;29;20197;-68
2024/01/28 01:06:45;;;;;;;8.50;3.50;;;;;;;;;;10140706;29;20235;-68
2024/01/28 01:11:45;;;;;;;14.83;3.70;;;;;;;;;;10141686;29;20493;-68
2024/01/28 01:16:45;;;;;;;11.80;3.73;;;;;;;;;;10141417;28;20300;-68
2024/01/28 01:21:48;;;;;;;5.67;3.00;;;;;;;;;;10148258;28;20237;-68
2024/01/28 01:26:49;;;;;;;16.23;3.80;;;;;;;;;;10138866;29;20690;-68
2024/01/28 01:31:49;;;;;;;18.20;3.50;;;;;;;;;;10147580;28;20194;-68
2024/01/28 01:36:49;;;;;;;14.63;3.33;;;;;;;;;;10147615;28;20271;-69
2024/01/28 01:41:49;;;;;;;10.13;3.83;;;;;;;;;;10147458;28;20613;-68
2024/01/28 01:46:49;;;;;;;14.50;2.97;;;;;;;;;;10146919;28;20231;-68
2024/01/28 01:51:50;;;;;;;9.50;2.77;;;;;;;;;;10147062;28;20610;-69
2024/01/28 01:56:50;;;;;;;14.57;4.00;;;;;;;;;;10147639;28;20611;-68
2024/01/28 02:01:54;;;;;;;16.83;3.83;;;;;;;;;;10146555;29;20243;-69
2024/01/28 02:06:54;;;;;;;20.67;4.30;;;;;;;;;;10147376;29;20232;-69
2024/01/28 02:11:54;;;;;;;12.80;3.90;;;;;;;;;;10146810;29;20205;-70
2024/01/28 02:16:55;;;;;;;10.47;2.70;;;;;;;;;;10146521;29;20278;-68
2024/01/28 02:21:55;;;;;;;16.53;3.90;;;;;;;;;;10146692;28;20197;-68
2024/01/28 02:26:55;;;;;;;7.97;2.20;;;;;;;;;;10145612;29;20224;-68
2024/01/28 02:31:55;;;;;;;21.03;4.00;;;;;;;;;;10145283;29;20569;-68
2024/01/28 02:36:55;;;;;;;8.43;3.17;;;;;;;;;;10145835;29;20247;-68
2024/01/28 02:41:56;;;;;;;8.67;2.77;;;;;;;;;;10146256;28;20191;-68
2024/01/28 02:46:56;;;;;;;8.77;2.50;;;;;;;;;;10145494;28;20228;-68
2024/01/28 02:51:56;;;;;;;6.83;2.90;;;;;;;;;;10145108;29;20571;-67
2024/01/28 02:56:56;;;;;;;17.25;3.88;;;;;;;;;;10147059;29;20222;-67
2024/01/28 03:01:57;;;;;;;17.00;3.57;;;;;;;;;;10144895;28;20240;-69
2024/01/28 03:06:57;;;;;;;22.20;4.20;;;;;;;;;;10144247;29;20235;-69
2024/01/28 03:11:57;;;;;;;13.73;3.87;;;;;;;;;;10144905;29;20223;-69
2024/01/28 03:16:57;;;;;;;20.23;4.60;;;;;;;;;;10144856;29;20243;-70
2024/01/28 03:21:57;;;;;;;13.90;3.97;;;;;;;;;;10144210;28;20440;-69
2024/01/28 03:26:58;;;;;;;22.77;4.07;;;;;;;;;;10145245;28;20909;-69
2024/01/28 03:31:58;;;;;;;17.87;4.43;;;;;;;;;;10134785;29;20197;-69
2024/01/28 03:36:58;;;;;;;14.97;3.80;;;;;;;;;;10133160;29;20272;-70
2024/01/28 03:41:59;;;;;;;13.87;3.57;;;;;;;;;;10134156;29;20211;-69
2024/01/28 03:46:59;;;;;;;18.30;3.57;;;;;;;;;;10133192;29;20229;-69
2024/01/28 03:51:59;;;;;;;11.00;3.13;;;;;;;;;;10133051;29;20248;-69
2024/01/28 03:56:59;;;;;;;11.17;2.47;;;;;;;;;;10132085;28;20539;-69
2024/01/28 04:02:00;;;;;;;14.67;3.27;;;;;;;;;;10131827;29;20193;-69
2024/01/28 04:07:00;;;;;;;9.00;2.73;;;;;;;;;;10131438;29;20217;-69
2024/01/28 04:12:00;;;;;;;14.98;3.90;;;;;;;;;;10131418;28;20196;-69
2024/01/28 04:17:00;;;;;;;14.23;3.40;;;;;;;;;;10132029;29;20580;-68
2024/01/28 04:22:01;;;;;;;12.00;2.90;;;;;;;;;;10132025;29;20193;-68
2024/01/28 04:27:01;;;;;;;8.37;3.00;;;;;;;;;;10131394;28;20489;-69
2024/01/28 04:32:01;;;;;;;13.47;3.07;;;;;;;;;;10132073;28;20332;-69
2024/01/28 04:37:02;;;;;;;7.40;2.90;;;;;;;;;;10131234;28;20244;-69
2024/01/28 04:42:02;;;;;;;14.47;3.20;;;;;;;;;;10131590;28;20454;-68
2024/01/28 04:47:02;;;;;;;15.67;3.00;;;;;;;;;;10130537;28;20312;-69
2024/01/28 04:52:03;;;;;;;12.37;3.50;;;;;;;;;;10131560;29;20656;-68
2024/01/28 04:57:03;;;;;;;10.60;3.00;;;;;;;;;;10137328;29;20480;-69
2024/01/28 05:02:05;;;;;;;11.53;2.93;;;;;;;;;;10137459;28;20200;-69
2024/01/28 05:07:06;;;;;;;20.13;2.93;;;;;;;;;;10136636;29;20228;-68
2024/01/28 05:12:06;;;;;;;11.63;2.87;;;;;;;;;;10136467;28;20208;-68
2024/01/28 05:17:06;;;;;;;4.50;2.00;;;;;;;;;;10136172;29;20217;-68
2024/01/28 05:22:06;;;;;;;11.90;3.20;;;;;;;;;;10136709;29;20196;-69
2024/01/28 05:27:08;;;;;;;6.95;2.70;;;;;;;;;;10135812;29;20324;-69
2024/01/28 05:32:09;;;;;;;9.23;2.80;;;;;;;;;;10136053;29;20221;-69
2024/01/28 05:37:09;;;;;;;13.80;2.80;;;;;;;;;;10137575;28;20223;-69
2024/01/28 05:42:09;;;;;;;11.33;3.27;;;;;;;;;;10135813;29;20209;-69
2024/01/28 05:47:10;;;;;;;10.23;2.77;;;;;;;;;;10135686;28;20312;-69
2024/01/28 05:52:10;;;;;;;4.80;2.13;;;;;;;;;;10135480;28;20217;-69
2024/01/28 05:57:10;;;;;;;8.37;2.10;;;;;;;;;;10135408;28;20283;-69
2024/01/28 06:02:10;;;;;;;5.70;1.80;;;;;;;;;;10135124;29;20197;-68
2024/01/28 06:07:11;;;;;;;6.00;2.17;;;;;;;;;;10133498;28;20259;-69
2024/01/28 06:12:11;;;;;;;7.83;2.03;;;;;;;;;;10135063;29;20201;-69
2024/01/28 06:17:11;;;;;;;8.53;2.20;;;;;;;;;;10134515;29;20561;-69
2024/01/28 06:22:11;;;;;;;6.53;1.87;;;;;;;;;;10134719;29;20186;-69
2024/01/28 06:27:11;;;;;;;9.63;2.85;;;;;;;;;;10133913;29;20253;-69
2024/01/28 06:32:11;;;;;;;12.27;2.07;;;;;;;;;;10134404;29;20619;-69
2024/01/28 06:37:12;;;;;;;4.63;1.40;;;;;;;;;;10136952;28;20205;-69
2024/01/28 06:42:12;;;;;;;6.70;2.20;;;;;;;;;;10133725;29;20197;-69
2024/01/28 06:47:13;;;;;;;7.33;1.80;;;;;;;;;;10133474;29;20304;-69
2024/01/28 06:52:13;;;;;;;2.13;1.60;;;;;;;;;;10133396;29;20197;-69
2024/01/28 06:57:13;;;;;;;6.57;2.00;;;;;;;;;;10134288;29;20511;-69
2024/01/28 07:02:14;;;;;;;7.00;2.20;;;;;;;;;;10134372;28;20204;-69
2024/01/28 07:07:14;;;;;;;3.87;1.97;;;;;;;;;;10133138;28;20273;-69
2024/01/28 07:12:14;;;;;;;6.30;3.10;;;;;;;;;;10132767;28;20454;-69
2024/01/28 07:17:14;;;;;;;7.73;3.10;;;;;;;;;;10132117;29;20221;-69
2024/01/28 07:22:14;;;;;;;4.85;2.47;;;;;;;;;;10132144;28;20224;-69
2024/01/28 07:27:14;;;;;;;7.60;2.10;;;;;;;;;;10140807;28;20263;-69
2024/01/28 07:32:15;;;;;;;6.13;1.97;;;;;;;;;;10132341;29;20434;-69
2024/01/28 07:37:15;;;;;;;6.70;2.20;;;;;;;;;;10132153;28;20217;-69
2024/01/28 07:42:15;;;;;;;6.23;1.90;;;;;;;;;;10131903;29;20973;-69
2024/01/28 07:47:15;;;;;;;8.83;1.93;;;;;;;;;;10130592;29;20221;-69
2024/01/28 07:52:15;;;;;;;10.47;2.27;;;;;;;;;;10130780;28;20220;-68
2024/01/28 07:57:15;;;;;;;12.93;2.63;;;;;;;;;;10129922;28;20209;-68
2024/01/28 08:02:16;;;;;;;6.10;2.03;;;;;;;;;;10130410;28;20200;-69
2024/01/28 08:07:16;;;;;;;8.97;3.27;;;;;;;;;;10130770;29;20224;-69
2024/01/28 08:12:16;;;;;;;12.90;2.43;;;;;;;;;;10130992;29;20453;-69
2024/01/28 08:17:16;;;;;;;9.77;2.20;;;;;;;;;;10131090;28;20225;-69
2024/01/28 08:22:17;;;;;;;8.57;2.20;;;;;;;;;;10130673;28;20198;-68
2024/01/28 08:27:17;;;;;;;63.83;21.80;;;;;;;;;;10131135;29;20617;-69
2024/01/28 08:32:17;;;;;;;12.63;4.30;;;;;;;;;;10136520;29;20248;-69
2024/01/28 08:37:17;;;;;;;9.90;3.93;;;;;;;;;;10136720;29;20213;-68
2024/01/28 08:42:19;;;;;;;7.70;2.80;;;;;;;;;;10156243;28;20208;-69
2024/01/28 08:47:19;;;;;;;5.10;1.83;;;;;;;;;;10135659;29;20213;-68
2024/01/28 08:52:20;;;;;;;9.97;2.50;;;;;;;;;;10143785;28;20200;-69
2024/01/28 08:57:20;;;;;;;7.23;1.97;;;;;;;;;;10140897;28;20268;-69
2024/01/28 09:02:21;;;;;;;9.10;2.53;;;;;;;;;;10137603;29;20192;-68
2024/01/28 09:07:21;;;;;;;6.97;2.10;;;;;;;;;;10137503;28;20233;-68
2024/01/28 09:12:21;;;;;;;5.53;2.37;;;;;;;;;;10137393;29;20204;-68
2024/01/28 09:17:21;;;;;;;8.93;2.43;;;;;;;;;;10137126;28;20220;-68
2024/01/28 09:22:21;;;;;;;6.53;2.67;;;;;;;;;;10135720;29;20671;-68
2024/01/28 09:27:23;;;;;;;7.87;2.30;;;;;;;;;;10135551;28;20616;-68
2024/01/28 09:32:24;;;;;;;6.60;2.10;;;;;;;;;;10134816;29;20197;-68
2024/01/28 09:37:24;;;;;;;11.63;4.27;;;;;;;;;;10134413;29;20304;-68
2024/01/28 09:42:27;;;;;;;3.93;1.83;;;;;;;;;;10134371;29;20672;-68
2024/01/28 09:47:28;;;;;;;16.60;7.30;;;;;;;;;;10134022;28;20221;-67
2024/01/28 09:52:29;;;;;;;10.13;2.27;;;;;;;;;;10134035;29;20181;-67
2024/01/28 09:57:29;;;;;;;8.10;2.03;;;;;;;;;;10133923;28;20304;-67
2024/01/28 10:02:30;;;;;;;6.27;1.87;;;;;;;;;;10134045;28;20197;-68
2024/01/28 10:07:39;;;;;;;7.70;2.40;;;;;;;;;;10132580;29;20481;-68
2024/01/28 10:12:39;;;;;;;3.03;1.43;;;;;;;;;;10130735;29;20244;-65
2024/01/28 10:17:40;;;;;;;4.00;1.83;;;;;;;;;;10133590;28;20645;-68
2024/01/28 10:22:40;;;;;;;4.27;1.83;;;;;;;;;;10133232;28;20193;-67
2024/01/28 10:27:40;;;;;;;3.60;1.40;;;;;;;;;;10132664;28;20302;-65
2024/01/28 10:32:41;;;;;;;5.93;2.40;;;;;;;;;;10132919;29;20201;-68
2024/01/28 10:37:41;;;;;;;6.93;1.80;;;;;;;;;;10132670;29;20567;-68
2024/01/28 10:42:42;;;;;;;3.90;1.40;;;;;;;;;;10132501;29;20202;-69
2024/01/28 10:47:53;;;;;;;5.10;2.30;;;;;;;;;;10131848;29;20237;-68
2024/01/28 10:52:53;;;;;;;3.37;1.67;;;;;;;;;;10131423;28;20582;-69
2024/01/28 10:57:53;;;;;;;3.33;1.47;;;;;;;;;;10131955;29;20232;-69
2024/01/28 11:02:56;;;;;;;3.53;2.13;;;;;;;;;;10131880;28;20219;-69
2024/01/28 11:07:59;;;;;;;6.33;2.20;;;;;;;;;;10131598;29;20233;-69
2024/01/28 11:13:02;;;;;;;4.73;2.23;;;;;;;;;;10130688;29;20268;-67
2024/01/28 11:18:06;;;;;;;6.33;2.27;;;;;;;;;;10130203;29;20527;-66
2024/01/28 11:23:13;;;;;;;7.57;2.37;;;;;;;;;;10127971;29;20586;-67
2024/01/28 11:28:14;;;;;;;3.67;1.60;;;;;;;;;;10130869;28;20241;-69
2024/01/28 11:33:15;;;;;;;5.90;2.20;;;;;;;;;;10131013;28;20573;-67
2024/01/28 11:38:22;;;;;;;6.17;2.27;;;;;;;;;;10130544;29;20220;-68
2024/01/28 11:43:23;;;;;;;2.57;1.73;;;;;;;;;;10130624;28;20193;-69
2024/01/28 11:48:23;;;;;;;9.53;2.67;;;;;;;;;;10130326;29;20691;-68
2024/01/28 11:53:23;;;;;;;6.90;1.83;;;;;;;;;;10130489;28;20196;-67
2024/01/28 11:58:23;;;;;;;5.30;2.40;;;;;;;;;;10130184;29;20309;-67
2024/01/28 12:03:23;;;;;;;11.23;2.50;;;;;;;;;;10129975;29;20255;-67
2024/01/28 12:08:24;;;;;;;8.63;1.47;;;;;;;;;;10130245;28;20221;-68
2024/01/28 12:13:25;;;;;;;5.60;2.13;;;;;;;;;;10130038;29;20197;-67
2024/01/28 12:18:31;;;;;;;4.43;2.10;;;;;;;;;;10129853;29;21030;-66
2024/01/28 12:23:32;;;;;;;6.27;2.30;;;;;;;;;;10129213;29;20201;-66
2024/01/28 12:28:33;;;;;;;5.47;2.03;;;;;;;;;;10129144;28;20754;-67
2024/01/28 12:33:33;;;;;;;4.47;2.40;;;;;;;;;;10129773;29;20219;-67
2024/01/28 12:38:33;;;;;;;5.90;1.80;;;;;;;;;;10133115;29;20602;-67
2024/01/28 12:43:33;;;;;;;4.13;1.70;;;;;;;;;;10134745;28;20234;-67
2024/01/28 12:48:33;;;;;;;8.13;2.30;;;;;;;;;;10130077;28;20708;-68
2024/01/28 12:53:34;;;;;;;2.83;1.33;;;;;;;;;;10128183;28;20482;-69
2024/01/28 12:58:34;;;;;;;5.43;2.43;;;;;;;;;;10126925;28;20222;-68
2024/01/28 13:03:34;;;;;;;5.45;2.45;;;;;;;;;;10123729;28;20602;-68
2024/01/28 13:08:35;;;;;;;5.28;2.13;;;;;;;;;;10122781;28;20221;-68
2024/01/28 13:13:36;;;;;;;7.10;2.40;;;;;;;;;;10124710;28;20449;-68
2024/01/28 13:18:36;;;;;;;6.32;2.58;;;;;;;;;;10129859;29;20247;-68
2024/01/28 13:23:37;;;;;;;10.55;2.55;;;;;;;;;;10129328;29;20206;-68
2024/01/28 13:28:37;;;;;;;5.95;2.92;;;;;;;;;;10128461;29;20252;-68
2024/01/28 13:33:37;;;;;;;7.22;2.70;;;;;;;;;;10129000;28;20205;-68
2024/01/28 13:38:37;;;;;;;5.80;2.33;;;;;;;;;;10128530;28;20292;-67
2024/01/28 13:43:37;;;;;;;5.77;2.87;;;;;;;;;;10126981;28;20385;-67
2024/01/28 13:48:38;;;;;;;7.57;3.03;;;;;;;;;;10127894;28;20229;-67
2024/01/28 13:53:38;;;;;;;7.97;3.10;;;;;;;;;;10128681;28;20204;-66
2024/01/28 13:58:38;;;;;;;8.63;3.20;;;;;;;;;;10132893;28;20240;-66
2024/01/28 14:03:38;;;;;;;6.03;2.33;;;;;;;;;;10128046;29;20660;-66
2024/01/28 14:08:38;;;;;;;5.27;2.43;;;;;;;;;;10127565;29;20663;-67
2024/01/28 14:13:39;;;;;;;3.87;2.00;;;;;;;;;;10273519;22;20238;-69
2024/01/28 14:18:39;;;;;;;5.50;1.90;;;;;;;;;;10284666;28;20202;-67
2024/01/28 14:23:39;;;;;;;5.83;1.90;;;;;;;;;;10247057;28;20208;-68
2024/01/28 14:28:40;;;;;;;5.40;2.70;;;;;;;;;;10243766;28;20223;-67
2024/01/28 14:33:40;;;;;;;6.93;3.63;;;;;;;;;;10243480;28;20462;-68
2024/01/28 14:38:40;;;;;;;8.00;2.90;;;;;;;;;;10243970;28;20192;-67
2024/01/28 14:43:40;;;;;;;5.17;2.40;;;;;;;;;;10243625;28;20294;-68
2024/01/28 14:48:40;;;;;;;9.67;3.13;;;;;;;;;;10243469;28;20710;-68
2024/01/28 14:53:40;;;;;;;14.10;3.57;;;;;;;;;;10243749;29;20207;-69
2024/01/28 14:58:41;;;;;;;4.03;2.27;;;;;;;;;;10243424;28;20190;-69
2024/01/28 15:03:41;;;;;;;2.50;1.73;;;;;;;;;;10243438;28;20227;-69
2024/01/28 15:08:41;;;;;;;10.80;2.53;;;;;;;;;;10243080;28;20219;-68
2024/01/28 15:13:42;;;;;;;6.40;2.13;;;;;;;;;;10242666;28;20266;-69
2024/01/28 15:18:43;;;;;;;4.43;2.53;;;;;;;;;;10242994;28;20234;-69
2024/01/28 15:23:43;;;;;;;5.83;2.10;;;;;;;;;;10242488;28;20428;-69
2024/01/28 15:28:43;;;;;;;7.60;2.83;;;;;;;;;;10242450;28;20273;-69
2024/01/28 15:33:43;;;;;;;8.97;2.93;;;;;;;;;;10241847;28;21016;-69
2024/01/28 15:38:44;;;;;;;7.57;2.50;;;;;;;;;;10241413;28;20439;-69
2024/01/28 15:43:44;;;;;;;4.67;1.83;;;;;;;;;;10241365;28;20219;-69
2024/01/28 15:48:44;;;;;;;7.93;2.50;;;;;;;;;;10241281;28;20227;-69
2024/01/28 15:53:44;;;;;;;3.80;2.20;;;;;;;;;;10271678;28;20215;-69
2024/01/28 15:58:45;;;;;;;7.63;2.73;;;;;;;;;;10264726;28;20191;-68
2024/01/28 16:03:45;;;;;;;5.50;2.37;;;;;;;;;;10267662;28;20657;-68
2024/01/28 16:08:45;;;;;;;4.37;2.50;;;;;;;;;;10277435;28;20743;-68
2024/01/28 16:13:46;;;;;;;4.80;3.08;;;;;;;;;;10247315;28;20716;-68
2024/01/28 16:18:46;;;;;;;8.70;3.50;;;;;;;;;;10342983;28;20275;-68
2024/01/28 16:23:46;;;;;;;9.27;4.13;;;;;;;;;;10297166;28;20256;-68
2024/01/28 16:28:47;;;;;;;15.23;7.47;;;;;;;;;;10319180;28;20210;-68
2024/01/28 16:33:47;;;;;;;10.00;4.00;;;;;;;;;;10319197;28;20210;-68
2024/01/28 16:38:48;;;;;;;4.43;2.77;;;;;;;;;;10317396;28;20190;-68
2024/01/28 16:43:48;;;;;;;5.47;2.60;;;;;;;;;;10314774;28;20457;-68
2024/01/28 16:48:48;;;;;;;3.40;1.97;;;;;;;;;;10336730;28;20241;-68
2024/01/28 16:53:48;;;;;;;7.53;2.90;;;;;;;;;;10318870;28;20342;-68
2024/01/28 16:58:48;;;;;;;7.73;3.93;;;;;;;;;;10284817;28;20217;-67
2024/01/28 17:03:49;;;;;;;5.53;2.47;;;;;;;;;;10292865;28;20222;-68
2024/01/28 17:08:49;;;;;;;7.53;2.37;;;;;;;;;;10284391;28;20284;-68
2024/01/28 17:13:49;;;;;;;6.97;2.20;;;;;;;;;;10263694;28;20248;-68
2024/01/28 17:18:49;;;;;;;3.43;2.40;;;;;;;;;;10247142;28;20287;-68
2024/01/28 17:23:51;;;;;;;6.93;2.20;;;;;;;;;;10246430;28;20237;-68
2024/01/28 17:28:52;;;;;;;4.40;2.60;;;;;;;;;;10280487;28;20505;-68
2024/01/28 17:33:53;;;;;;;5.07;2.37;;;;;;;;;;10246647;28;20227;-68
2024/01/28 17:38:54;;;;;;;2.40;2.10;;;;;;;;;;10245837;28;20281;-68
2024/01/28 17:43:54;;;;;;;7.93;2.40;;;;;;;;;;10246887;28;20269;-68
2024/01/28 17:48:54;;;;;;;6.77;1.67;;;;;;;;;;10245687;28;20282;-68
2024/01/28 17:53:54;;;;;;;8.23;3.03;;;;;;;;;;10249651;28;20208;-68
2024/01/28 17:58:55;;;;;;;5.63;2.57;;;;;;;;;;10271452;28;20204;-68
2024/01/28 18:03:55;;;;;;;8.13;2.60;;;;;;;;;;10265087;28;20226;-68
2024/01/28 18:08:55;;;;;;;4.40;2.53;;;;;;;;;;10251755;28;20223;-68
2024/01/28 18:13:55;;;;;;;5.40;2.70;;;;;;;;;;10271957;28;20235;-68
2024/01/28 18:18:56;;;;;;;7.73;2.93;;;;;;;;;;10271631;28;20661;-68
2024/01/28 18:23:56;;;;;;;7.43;2.73;;;;;;;;;;10278900;28;20223;-68
2024/01/28 18:28:56;;;;;;;4.47;2.10;;;;;;;;;;10249552;28;20223;-68
2024/01/28 18:33:56;;;;;;;8.70;3.70;;;;;;;;;;10244046;28;20216;-68
2024/01/28 18:39:01;;;;;;;8.33;2.80;;;;;;;;;;10244000;28;20278;-68
2024/01/28 18:44:01;;;;;;;6.57;3.37;;;;;;;;;;10243350;28;20604;-68
2024/01/28 18:49:01;;;;;;;5.83;2.83;;;;;;;;;;10243099;28;20215;-68
2024/01/28 18:54:01;;;;;;;9.20;3.37;;;;;;;;;;10243609;28;20293;-68
2024/01/28 18:59:02;;;;;;;10.87;3.70;;;;;;;;;;10242750;28;20186;-68
2024/01/28 19:04:02;;;;;;;8.60;4.47;;;;;;;;;;10270466;28;20601;-68
2024/01/28 19:09:02;;;;;;;7.23;3.23;;;;;;;;;;10273234;28;20242;-68
2024/01/28 19:14:02;;;;;;;8.50;2.93;;;;;;;;;;10263896;28;20280;-68
2024/01/28 19:19:03;;;;;;;6.80;3.17;;;;;;;;;;10263334;28;20191;-68
2024/01/28 19:24:04;;;;;;;7.93;2.77;;;;;;;;;;10272523;28;20214;-68
2024/01/28 19:29:05;;;;;;;6.53;2.60;;;;;;;;;;10245976;28;20219;-69
2024/01/28 19:34:07;;;;;;;11.23;3.13;;;;;;;;;;10268893;28;20268;-69
2024/01/28 19:39:11;;;;;;;5.87;2.57;;;;;;;;;;10243736;28;20242;-69
2024/01/28 19:44:11;;;;;;;7.03;3.30;;;;;;;;;;10257325;28;20622;-69
2024/01/28 19:49:11;;;;;;;4.47;2.17;;;;;;;;;;10290330;28;20303;-69
2024/01/28 19:54:11;;;;;;;7.63;3.20;;;;;;;;;;10273611;28;20582;-68
2024/01/28 19:59:11;;;;;;;6.33;3.13;;;;;;;;;;10274628;28;20198;-68
2024/01/28 20:04:12;;;;;;;7.97;3.20;;;;;;;;;;10249850;28;20194;-69
2024/01/28 20:09:12;;;;;;;7.47;3.30;;;;;;;;;;10262156;28;20210;-68
2024/01/28 20:14:12;;;;;;;9.60;3.03;;;;;;;;;;10283434;28;20222;-69
2024/01/28 20:19:17;;;;;;;5.70;2.80;;;;;;;;;;10240869;28;20198;-68
2024/01/28 20:24:17;;;;;;;9.60;3.17;;;;;;;;;;10239707;28;20192;-68
2024/01/28 20:29:17;;;;;;;6.03;3.47;;;;;;;;;;10245628;28;20574;-69
2024/01/28 20:34:19;;;;;;;6.33;3.33;;;;;;;;;;10330725;28;20187;-68
2024/01/28 20:39:19;;;;;;;9.60;3.37;;;;;;;;;;10261908;28;20628;-69
2024/01/28 20:44:23;;;;;;;7.53;3.60;;;;;;;;;;10240421;28;20207;-68
2024/01/28 20:49:24;;;;;;;8.13;4.13;;;;;;;;;;10238826;28;20215;-69
2024/01/28 20:54:24;;;;;;;6.23;3.73;;;;;;;;;;10240541;28;20669;-69
2024/01/28 20:59:24;;;;;;;14.83;5.17;;;;;;;;;;10239842;28;20206;-69
2024/01/28 21:04:24;;;;;;;9.43;4.07;;;;;;;;;;10265181;28;20274;-68
2024/01/28 21:09:25;;;;;;;11.10;3.70;;;;;;;;;;10238583;28;20992;-69
2024/01/28 21:14:25;;;;;;;14.90;5.13;;;;;;;;;;10239709;28;20204;-68
2024/01/28 21:19:25;;;;;;;17.20;6.27;;;;;;;;;;10239560;28;20301;-69
2024/01/28 21:24:25;;;;;;;12.60;5.23;;;;;;;;;;10239325;28;20686;-69
2024/01/28 21:29:28;;;;;;;14.00;4.47;;;;;;;;;;10239016;28;20260;-69
2024/01/28 21:34:29;;;;;;;5.83;3.57;;;;;;;;;;10276638;28;20199;-68
2024/01/28 21:39:29;;;;;;;10.03;3.47;;;;;;;;;;10275449;28;20605;-69
2024/01/28 21:44:29;;;;;;;12.17;4.27;;;;;;;;;;10263380;28;20937;-69
2024/01/28 21:49:29;;;;;;;10.63;3.73;;;;;;;;;;10245427;28;20723;-69
2024/01/28 21:54:30;;;;;;;11.83;3.43;;;;;;;;;;10245355;28;20199;-69
2024/01/28 21:59:30;;;;;;;8.63;3.13;;;;;;;;;;10244330;28;20299;-68
2024/01/28 22:04:30;;;;;;;10.77;3.33;;;;;;;;;;10244895;28;20195;-68
2024/01/28 22:09:30;;;;;;;9.00;3.10;;;;;;;;;;10244741;28;20337;-68
2024/01/28 22:14:30;;;;;;;8.83;2.93;;;;;;;;;;10245329;28;20253;-69
2024/01/28 22:19:31;;;;;;;1.87;1.67;;;;;;;;;;10244959;28;20234;-68
2024/01/28 22:24:31;;;;;;;5.43;2.43;;;;;;;;;;10244871;28;20222;-68
2024/01/28 22:29:31;;;;;;;5.37;2.13;;;;;;;;;;10244446;28;20270;-69
2024/01/28 22:34:31;;;;;;;7.00;2.43;;;;;;;;;;10244352;28;20204;-69
2024/01/28 22:39:31;;;;;;;1.93;1.73;;;;;;;;;;10244539;28;20245;-68
2024/01/28 22:44:32;;;;;;;6.60;2.87;;;;;;;;;;10244186;28;20205;-68
2024/01/28 22:49:33;;;;;;;5.30;2.10;;;;;;;;;;10243340;28;20211;-69
2024/01/28 22:54:33;;;;;;;2.57;1.77;;;;;;;;;;10243930;28;20195;-69
2024/01/28 22:59:33;;;;;;;3.57;1.87;;;;;;;;;;10243924;28;20223;-69
2024/01/28 23:04:33;;;;;;;4.67;1.83;;;;;;;;;;10243275;28;20199;-69
2024/01/28 23:09:33;;;;;;;6.87;2.27;;;;;;;;;;10243537;28;20215;-69
2024/01/28 23:14:34;;;;;;;3.27;1.77;;;;;;;;;;10243737;28;20195;-69
2024/01/28 23:19:34;;;;;;;3.93;2.10;;;;;;;;;;10243348;28;20655;-69
2024/01/28 23:24:34;;;;;;;4.60;2.50;;;;;;;;;;10243306;28;20615;-69
2024/01/28 23:29:34;;;;;;;7.03;2.47;;;;;;;;;;10243256;28;20626;-69
2024/01/28 23:34:35;;;;;;;13.10;2.33;;;;;;;;;;10242394;28;20257;-69
2024/01/28 23:39:35;;;;;;;2.90;1.80;;;;;;;;;;10241257;28;20219;-69
2024/01/28 23:44:35;;;;;;;3.20;2.10;;;;;;;;;;10242498;28;20217;-69
2024/01/28 23:49:35;;;;;;;2.97;1.60;;;;;;;;;;10242049;28;20250;-69
2024/01/28 23:54:36;;;;;;;2.83;1.80;;;;;;;;;;10242032;28;20199;-69
2024/01/28 23:59:36;;;;;;;2.00;1.30;;;;;;;;;;10241742;28;20215;-69
